createdAt,value
2022-12-04T00:00:21.588Z,5.06
2022-12-04T00:03:24.040Z,5.02
2022-12-04T00:06:27.212Z,4.95
2022-12-04T00:09:29.771Z,4.90
2022-12-04T00:12:31.933Z,4.93
2022-12-04T00:15:34.377Z,4.91
2022-12-04T00:18:36.727Z,4.88
2022-12-04T00:21:41.518Z,4.74
2022-12-04T00:24:44.062Z,4.50
2022-12-04T00:27:46.460Z,4.55
2022-12-04T00:30:48.602Z,4.47
2022-12-04T00:33:51.409Z,4.33
2022-12-04T00:36:53.554Z,4.49
2022-12-04T00:39:56.160Z,4.32
2022-12-04T00:42:58.514Z,4.40
2022-12-04T00:46:00.939Z,4.58
2022-12-04T00:49:03.247Z,4.48
2022-12-04T00:52:05.613Z,4.45
2022-12-04T00:55:08.616Z,4.46
2022-12-04T00:58:12.022Z,4.38
2022-12-04T01:01:18.573Z,4.51
2022-12-04T01:04:21.280Z,4.47
2022-12-04T01:07:23.453Z,4.52
2022-12-04T01:10:25.884Z,4.52
2022-12-04T01:13:28.014Z,4.52
2022-12-04T01:16:36.159Z,4.63
2022-12-04T01:19:40.750Z,4.68
2022-12-04T01:22:43.230Z,4.69
2022-12-04T01:25:54.166Z,4.65
2022-12-04T01:28:56.584Z,4.68
2022-12-04T01:31:59.103Z,4.74
2022-12-04T01:35:01.737Z,4.73
2022-12-04T01:38:03.870Z,4.83
2022-12-04T01:41:07.723Z,4.93
2022-12-04T01:44:19.926Z,4.83
2022-12-04T01:47:22.658Z,4.82
2022-12-04T01:50:25.065Z,4.78
2022-12-04T01:53:29.274Z,4.72
2022-12-04T01:56:36.728Z,4.65
2022-12-04T01:59:50.346Z,4.49
2022-12-04T02:02:52.944Z,4.52
2022-12-04T02:05:55.426Z,4.48
2022-12-04T02:08:58.020Z,4.33
2022-12-04T02:12:23.790Z,4.43
2022-12-04T02:15:45.642Z,4.41
2022-12-04T02:19:26.682Z,4.37
2022-12-04T02:23:00.994Z,4.19
2022-12-04T02:26:12.458Z,4.21
2022-12-04T02:29:17.740Z,4.14
2022-12-04T02:32:27.898Z,4.01
2022-12-04T02:35:38.719Z,4.02
2022-12-04T02:38:48.318Z,4.03
2022-12-04T02:42:04.457Z,3.94
2022-12-04T02:45:16.538Z,3.93
2022-12-04T02:48:21.052Z,3.76
2022-12-04T02:51:30.057Z,3.65
2022-12-04T02:54:40.190Z,3.60
2022-12-04T02:57:48.622Z,3.58
2022-12-04T03:00:54.520Z,3.65
2022-12-04T03:04:12.432Z,3.57
2022-12-04T03:07:19.848Z,3.57
2022-12-04T03:10:28.033Z,3.76
2022-12-04T03:13:41.771Z,3.73
2022-12-04T03:16:48.411Z,3.67
2022-12-04T03:19:56.992Z,3.77
2022-12-04T03:23:03.405Z,3.70
2022-12-04T03:26:22.712Z,3.69
2022-12-04T03:29:33.677Z,3.78
2022-12-04T03:32:55.662Z,3.76
2022-12-04T03:36:10.093Z,3.76
2022-12-04T03:39:20.864Z,3.68
2022-12-04T03:42:28.795Z,3.60
2022-12-04T03:45:44.190Z,3.56
2022-12-04T03:48:53.843Z,3.64
2022-12-04T03:52:04.689Z,3.64
2022-12-04T03:55:15.692Z,3.71
2022-12-04T03:58:28.288Z,3.67
2022-12-04T04:01:38.643Z,3.62
2022-12-04T04:04:45.320Z,3.55
2022-12-04T04:07:50.081Z,3.53
2022-12-04T04:11:22.227Z,3.56
2022-12-04T04:14:51.131Z,3.56
2022-12-04T04:18:15.241Z,3.38
2022-12-04T04:21:42.199Z,3.35
2022-12-04T04:24:57.891Z,3.45
2022-12-04T04:28:00.043Z,3.37
2022-12-04T04:31:45.233Z,3.37
2022-12-04T04:35:15.200Z,3.46
2022-12-04T04:38:31.758Z,3.39
2022-12-04T04:41:46.170Z,3.58
2022-12-04T04:45:21.827Z,3.51
2022-12-04T04:48:31.606Z,3.70
2022-12-04T04:51:36.912Z,3.75
2022-12-04T04:54:39.793Z,3.76
2022-12-04T04:57:42.144Z,3.83
2022-12-04T05:00:56.456Z,3.83
2022-12-04T05:03:58.868Z,3.78
2022-12-04T05:07:01.038Z,3.76
2022-12-04T05:10:04.690Z,3.60
2022-12-04T05:13:06.820Z,3.52
2022-12-04T05:16:13.258Z,3.59
2022-12-04T05:19:34.654Z,3.67
2022-12-04T05:22:37.425Z,3.65
2022-12-04T05:25:39.608Z,3.57
2022-12-04T05:28:45.149Z,3.61
2022-12-04T05:31:47.294Z,3.62
2022-12-04T05:34:51.759Z,3.59
2022-12-04T05:37:53.962Z,3.48
2022-12-04T05:41:00.510Z,3.47
2022-12-04T05:44:02.605Z,3.48
2022-12-04T05:47:06.008Z,3.60
2022-12-04T05:50:10.094Z,3.53
2022-12-04T05:53:12.816Z,3.53
2022-12-04T05:56:17.380Z,3.46
2022-12-04T05:59:21.510Z,3.50
2022-12-04T06:02:23.748Z,3.58
2022-12-04T06:05:26.329Z,3.53
2022-12-04T06:08:31.180Z,3.52
2022-12-04T06:11:36.541Z,3.65
2022-12-04T06:14:39.997Z,3.61
2022-12-04T06:17:42.579Z,3.55
2022-12-04T06:20:44.806Z,3.41
2022-12-04T06:23:47.624Z,3.31
2022-12-04T06:27:25.782Z,3.38
2022-12-04T06:30:13.160Z,3.60
2022-12-04T06:33:15.356Z,3.67
2022-12-04T06:36:21.121Z,3.79
2022-12-04T06:39:23.380Z,3.77
2022-12-04T06:42:26.151Z,3.74
2022-12-04T06:45:28.341Z,3.90
2022-12-04T06:48:31.022Z,4.04
2022-12-04T06:51:36.473Z,4.04
2022-12-04T06:54:38.984Z,3.88
2022-12-04T06:57:41.131Z,3.93
2022-12-04T07:00:43.863Z,4.03
2022-12-04T07:03:51.259Z,4.07
2022-12-04T07:06:54.672Z,3.97
2022-12-04T07:09:56.982Z,3.95
2022-12-04T07:12:59.528Z,4.11
2022-12-04T07:16:04.037Z,4.13
2022-12-04T07:19:06.592Z,4.04
2022-12-04T07:22:08.993Z,4.18
2022-12-04T07:25:11.518Z,4.11
2022-12-04T07:28:13.973Z,4.05
2022-12-04T07:31:20.323Z,4.19
2022-12-04T07:34:22.781Z,4.13
2022-12-04T07:37:25.253Z,4.13
2022-12-04T07:40:28.493Z,4.08
2022-12-04T07:43:31.865Z,4.12
2022-12-04T07:46:34.181Z,4.21
2022-12-04T07:49:36.718Z,4.37
2022-12-04T07:52:39.737Z,4.37
2022-12-04T07:55:42.453Z,4.36
2022-12-04T07:58:45.281Z,4.32
2022-12-04T08:01:47.767Z,4.25
2022-12-04T08:04:51.441Z,4.34
2022-12-04T08:07:54.535Z,4.40
2022-12-04T08:10:57.298Z,4.33
2022-12-04T08:14:01.906Z,4.38
2022-12-04T08:17:04.333Z,4.45
2022-12-04T08:20:07.514Z,4.52
2022-12-04T08:23:10.122Z,4.59
2022-12-04T08:26:12.799Z,4.72
2022-12-04T08:29:15.306Z,4.78
2022-12-04T08:32:17.382Z,4.75
2022-12-04T08:35:19.743Z,4.85
2022-12-04T08:38:21.865Z,4.95
2022-12-04T08:41:26.624Z,5.06
2022-12-04T08:44:28.776Z,5.07
2022-12-04T08:47:31.255Z,5.14
2022-12-04T08:50:33.528Z,5.44
2022-12-04T08:53:38.884Z,5.50
2022-12-04T08:56:41.130Z,5.49
2022-12-04T08:59:43.670Z,5.53
2022-12-04T09:02:49.776Z,5.67
2022-12-04T09:05:52.292Z,5.68
2022-12-04T09:08:55.748Z,5.71
2022-12-04T09:11:58.188Z,5.64
2022-12-04T09:15:01.542Z,5.70
2022-12-04T09:18:04.042Z,5.69
2022-12-04T09:21:09.372Z,5.66
2022-12-04T09:24:11.864Z,5.80
2022-12-04T09:27:15.057Z,5.81
2022-12-04T09:30:18.177Z,5.82
2022-12-04T09:33:20.403Z,5.92
2022-12-04T09:36:23.299Z,5.88
2022-12-04T09:39:25.538Z,6.15
2022-12-04T09:42:47.823Z,6.26
2022-12-04T09:45:55.305Z,6.09
2022-12-04T09:49:02.139Z,6.12
2022-12-04T09:52:21.964Z,6.20
2022-12-04T09:55:44.055Z,6.23
2022-12-04T09:59:03.111Z,6.15
2022-12-04T10:02:37.479Z,6.36
2022-12-04T10:05:58.404Z,6.48
2022-12-04T10:09:07.715Z,6.60
2022-12-04T10:12:33.415Z,6.49
2022-12-04T10:15:52.740Z,6.58
2022-12-04T10:19:12.800Z,6.71
2022-12-04T10:22:38.155Z,6.67
2022-12-04T10:25:42.129Z,6.70
2022-12-04T10:28:55.457Z,6.87
2022-12-04T10:32:16.442Z,7.07
2022-12-04T10:35:23.252Z,7.15
2022-12-04T10:38:47.523Z,7.12
2022-12-04T10:42:00.819Z,7.30
2022-12-04T10:45:05.870Z,7.30
2022-12-04T10:48:20.589Z,7.26
2022-12-04T10:51:24.015Z,7.47
2022-12-04T10:54:35.821Z,7.53
2022-12-04T10:57:44.226Z,7.49
2022-12-04T11:01:05.178Z,7.61
2022-12-04T11:04:18.565Z,7.64
2022-12-04T11:07:27.908Z,7.80
2022-12-04T11:10:41.047Z,7.86
2022-12-04T11:13:43.238Z,7.77
2022-12-04T11:16:51.989Z,7.81
2022-12-04T11:20:21.902Z,7.90
2022-12-04T11:23:26.738Z,7.86
2022-12-04T11:26:35.338Z,7.77
2022-12-04T11:29:43.040Z,7.75
2022-12-04T11:32:46.372Z,7.70
2022-12-04T11:35:55.687Z,7.82
2022-12-04T11:39:15.635Z,7.65
2022-12-04T11:42:28.051Z,7.70
2022-12-04T11:45:30.983Z,7.82
2022-12-04T11:48:43.461Z,7.79
2022-12-04T11:52:23.433Z,7.67
2022-12-04T11:55:38.793Z,7.79
2022-12-04T11:58:49.913Z,7.85
2022-12-04T12:02:11.427Z,7.92
2022-12-04T12:05:23.243Z,8.11
2022-12-04T12:08:31.740Z,8.01
2022-12-04T12:11:50.437Z,8.00
2022-12-04T12:15:18.616Z,8.12
2022-12-04T12:18:37.447Z,8.05
2022-12-04T12:22:11.993Z,8.11
2022-12-04T12:25:29.862Z,7.86
2022-12-04T12:28:38.686Z,8.02
2022-12-04T12:32:00.768Z,8.00
2022-12-04T12:35:13.329Z,8.10
2022-12-04T12:38:21.124Z,8.09
2022-12-04T12:41:29.337Z,7.98
2022-12-04T12:44:51.385Z,8.09
2022-12-04T12:48:00.545Z,8.13
2022-12-04T12:51:31.474Z,8.20
2022-12-04T12:54:44.533Z,8.21
2022-12-04T12:57:56.368Z,8.31
2022-12-04T13:01:08.084Z,8.51
2022-12-04T13:04:41.844Z,8.32
2022-12-04T13:08:00.464Z,8.33
2022-12-04T13:11:17.284Z,8.35
2022-12-04T13:14:19.868Z,8.13
2022-12-04T13:17:35.643Z,8.20
2022-12-04T13:20:46.120Z,8.10
2022-12-04T13:24:01.306Z,8.01
2022-12-04T13:27:19.095Z,8.02
2022-12-04T13:30:43.857Z,8.04
2022-12-04T13:34:03.300Z,8.10
2022-12-04T13:37:41.261Z,8.11
2022-12-04T13:40:48.194Z,8.03
2022-12-04T13:43:53.974Z,8.03
2022-12-04T13:47:04.318Z,8.07
2022-12-04T13:50:34.103Z,8.01
2022-12-04T13:53:40.327Z,7.92
2022-12-04T13:56:45.878Z,7.92
2022-12-04T13:59:49.115Z,7.78
2022-12-04T14:02:57.029Z,7.86
2022-12-04T14:06:05.411Z,7.95
2022-12-04T14:09:19.946Z,7.79
2022-12-04T14:12:32.617Z,7.69
2022-12-04T14:15:38.793Z,7.61
2022-12-04T14:18:47.501Z,7.57
2022-12-04T14:21:49.937Z,7.59
2022-12-04T14:24:52.584Z,7.58
2022-12-04T14:27:55.282Z,7.66
2022-12-04T14:31:04.012Z,7.68
2022-12-04T14:34:23.684Z,7.58
2022-12-04T14:37:35.968Z,7.68
2022-12-04T14:40:44.150Z,7.62
2022-12-04T14:43:49.940Z,7.57
2022-12-04T14:46:54.994Z,7.68
2022-12-04T14:50:15.065Z,7.64
2022-12-04T14:53:38.437Z,7.72
2022-12-04T14:56:48.220Z,7.63
2022-12-04T14:59:53.685Z,7.56
2022-12-04T15:03:00.018Z,7.74
2022-12-04T15:06:05.787Z,7.69
2022-12-04T15:09:36.722Z,7.71
2022-12-04T15:12:47.141Z,7.62
2022-12-04T15:15:50.217Z,7.57
2022-12-04T15:18:58.621Z,7.56
2022-12-04T15:22:10.095Z,7.59
2022-12-04T15:25:18.149Z,7.67
2022-12-04T15:28:23.661Z,7.74
2022-12-04T15:31:34.971Z,7.61
2022-12-04T15:34:41.886Z,7.67
2022-12-04T15:37:44.086Z,7.52
2022-12-04T15:41:04.883Z,7.57
2022-12-04T15:44:33.086Z,7.57
2022-12-04T15:47:53.876Z,7.52
2022-12-04T15:50:59.122Z,7.69
2022-12-04T15:54:02.622Z,7.62
2022-12-04T15:57:26.579Z,7.58
2022-12-04T16:00:32.860Z,7.70
2022-12-04T16:03:56.022Z,7.60
2022-12-04T16:06:58.407Z,7.47
2022-12-04T16:10:04.261Z,7.51
2022-12-04T16:13:06.521Z,7.48
2022-12-04T16:16:14.208Z,7.43
2022-12-04T16:19:33.121Z,7.38
2022-12-04T16:22:35.673Z,7.41
2022-12-04T16:25:37.884Z,7.52
2022-12-04T16:28:40.508Z,7.51
2022-12-04T16:31:43.149Z,7.30
2022-12-04T16:34:46.310Z,7.32
2022-12-04T16:37:48.690Z,7.34
2022-12-04T16:40:51.115Z,7.34
2022-12-04T16:43:56.079Z,7.28
2022-12-04T16:46:58.608Z,7.37
2022-12-04T16:50:00.894Z,7.32
2022-12-04T16:53:03.408Z,7.40
2022-12-04T16:56:05.762Z,7.40
2022-12-04T16:59:11.953Z,7.36
2022-12-04T17:02:27.204Z,7.45
2022-12-04T17:05:32.118Z,7.37
2022-12-04T17:08:34.281Z,7.30
2022-12-04T17:11:37.629Z,7.31
2022-12-04T17:14:40.530Z,7.42
2022-12-04T17:17:42.998Z,7.31
2022-12-04T17:20:45.284Z,7.28
2022-12-04T17:23:47.766Z,7.24
2022-12-04T17:26:49.880Z,7.26
2022-12-04T17:29:54.570Z,7.22
2022-12-04T17:32:56.820Z,7.20
2022-12-04T17:36:03.413Z,7.34
2022-12-04T17:39:07.377Z,7.36
2022-12-04T17:42:09.964Z,7.18
2022-12-04T17:45:14.286Z,7.31
2022-12-04T17:48:16.813Z,7.33
2022-12-04T17:51:23.692Z,7.22
2022-12-04T17:54:26.098Z,7.12
2022-12-04T17:57:28.484Z,7.24
2022-12-04T18:00:31.049Z,7.13
2022-12-04T18:03:34.462Z,7.24
2022-12-04T18:06:40.001Z,7.21
2022-12-04T18:09:43.888Z,7.20
2022-12-04T18:12:46.110Z,7.18
2022-12-04T18:15:48.684Z,7.08
2022-12-04T18:18:53.640Z,7.14
2022-12-04T18:21:56.987Z,7.11
2022-12-04T18:25:00.549Z,7.08
2022-12-04T18:28:04.527Z,7.14
2022-12-04T18:31:07.974Z,7.11
2022-12-04T18:34:11.709Z,6.97
2022-12-04T18:37:14.004Z,7.07
2022-12-04T18:40:16.580Z,6.86
2022-12-04T18:43:18.986Z,6.95
2022-12-04T18:46:22.373Z,6.94
2022-12-04T18:49:24.693Z,6.93
2022-12-04T18:52:27.151Z,6.91
2022-12-04T18:55:29.331Z,6.98
2022-12-04T18:58:31.803Z,6.97
2022-12-04T19:01:34.191Z,6.91
2022-12-04T19:04:38.676Z,6.90
2022-12-04T19:07:40.858Z,6.91
2022-12-04T19:10:43.374Z,6.92
2022-12-04T19:13:45.623Z,6.92
2022-12-04T19:16:48.518Z,6.90
2022-12-04T19:19:51.770Z,6.96
2022-12-04T19:22:54.244Z,6.87
2022-12-04T19:25:58.094Z,6.88
2022-12-04T19:29:02.373Z,6.87
2022-12-04T19:32:04.839Z,6.94
2022-12-04T19:35:08.496Z,6.84
2022-12-04T19:38:11.000Z,6.83
2022-12-04T19:41:16.608Z,6.61
2022-12-04T19:47:43.948Z,6.66
2022-12-04T19:50:46.159Z,6.65
2022-12-04T19:53:49.140Z,6.78
2022-12-04T19:56:52.592Z,6.63
2022-12-04T19:59:55.574Z,6.60
2022-12-04T20:02:57.880Z,6.65
2022-12-04T20:06:09.310Z,6.72
2022-12-04T20:09:14.829Z,6.66
2022-12-04T20:12:17.380Z,6.70
2022-12-04T20:15:20.229Z,6.63
2022-12-04T20:18:22.901Z,6.59
2022-12-04T20:21:30.820Z,6.61
2022-12-04T20:24:33.357Z,6.56
2022-12-04T20:27:35.601Z,6.63
2022-12-04T20:30:38.202Z,6.73
2022-12-04T20:33:41.229Z,6.69
2022-12-04T20:36:45.828Z,6.62
2022-12-04T20:39:47.969Z,6.52
2022-12-04T20:42:50.373Z,6.63
2022-12-04T20:45:52.540Z,6.44
2022-12-04T20:48:55.067Z,6.41
2022-12-04T20:51:57.239Z,6.59
2022-12-04T20:55:00.243Z,6.53
2022-12-04T20:58:02.446Z,6.54
2022-12-04T21:01:12.577Z,6.45
2022-12-04T21:04:18.203Z,6.57
2022-12-04T21:07:20.694Z,6.56
2022-12-04T21:10:22.866Z,6.53
2022-12-04T21:13:43.843Z,6.51
2022-12-04T21:16:47.187Z,6.51
2022-12-04T21:19:50.682Z,6.36
2022-12-04T21:22:52.897Z,6.14
2022-12-04T21:25:56.155Z,6.25
2022-12-04T21:28:58.874Z,6.35
2022-12-04T21:32:02.068Z,6.49
2022-12-04T21:35:04.698Z,6.43
2022-12-04T21:38:07.206Z,6.34
2022-12-04T21:41:10.420Z,6.29
2022-12-04T21:44:16.970Z,6.19
2022-12-04T21:47:19.314Z,6.19
2022-12-04T21:50:21.783Z,6.12
2022-12-04T21:53:24.309Z,6.34
2022-12-04T21:56:26.834Z,6.24
2022-12-04T21:59:29.183Z,6.22
2022-12-04T22:02:32.502Z,6.25
2022-12-04T22:05:35.226Z,6.17
2022-12-04T22:08:40.044Z,6.18
2022-12-04T22:11:43.164Z,5.87
2022-12-04T22:14:45.228Z,5.89
2022-12-04T22:17:47.747Z,6.01
2022-12-04T22:20:50.006Z,5.95
2022-12-04T22:23:57.330Z,5.90
2022-12-04T22:26:59.521Z,5.89
2022-12-04T22:30:02.513Z,6.01
2022-12-04T22:33:05.004Z,6.15
2022-12-04T22:36:12.739Z,6.12
2022-12-04T22:39:14.910Z,6.05
2022-12-04T22:42:17.563Z,6.12
2022-12-04T22:45:19.713Z,6.12
2022-12-04T22:48:22.453Z,5.99
2022-12-04T22:51:24.645Z,5.99
2022-12-04T22:54:27.121Z,6.10
2022-12-04T22:57:29.436Z,5.98
2022-12-04T23:00:31.773Z,5.93
2022-12-04T23:03:34.062Z,6.02
2022-12-04T23:06:38.469Z,5.95
2022-12-04T23:09:40.696Z,5.85
2022-12-04T23:12:43.176Z,5.82
2022-12-04T23:15:45.470Z,5.71
2022-12-04T23:18:48.869Z,5.89
2022-12-04T23:21:56.863Z,5.95
2022-12-04T23:25:00.190Z,5.85
2022-12-04T23:28:02.399Z,5.94
2022-12-04T23:31:05.520Z,5.95
2022-12-04T23:34:07.912Z,5.99
2022-12-04T23:37:10.501Z,6.03
2022-12-04T23:40:13.251Z,5.98
2022-12-04T23:43:16.502Z,5.86
2022-12-04T23:46:21.869Z,5.92
2022-12-04T23:49:24.551Z,5.90
2022-12-04T23:52:27.066Z,5.82
2022-12-04T23:55:34.060Z,5.75
2022-12-04T23:58:37.278Z,5.90
